createdAt,value
2023-05-11T00:00:39.233Z,100568.06
2023-05-11T00:03:06.240Z,100559.31
2023-05-11T00:05:32.860Z,100571.44
2023-05-11T00:07:59.294Z,100572.34
2023-05-11T00:10:25.812Z,100567.91
2023-05-11T00:12:52.372Z,100569.66
2023-05-11T00:15:19.106Z,100567.91
2023-05-11T00:17:45.658Z,100566.34
2023-05-11T00:20:12.226Z,100565.53
2023-05-11T00:22:39.155Z,100566.47
2023-05-11T00:25:06.498Z,100570.88
2023-05-11T00:27:32.995Z,100565.56
2023-05-11T00:29:59.516Z,100564.66
2023-05-11T00:32:26.056Z,100567.19
2023-05-11T00:34:52.544Z,100568.00
2023-05-11T00:37:18.970Z,100575.09
2023-05-11T00:39:45.443Z,100562.84
2023-05-11T00:42:11.882Z,100566.34
2023-05-11T00:44:38.278Z,100567.25
2023-05-11T00:47:04.937Z,100564.53
2023-05-11T00:49:31.479Z,100566.19
2023-05-11T00:51:58.044Z,100564.34
2023-05-11T00:54:25.253Z,100573.09
2023-05-11T00:56:51.791Z,100569.59
2023-05-11T00:59:18.779Z,100571.44
2023-05-11T01:01:45.618Z,100567.19
2023-05-11T01:04:12.947Z,100569.88
2023-05-11T01:06:55.581Z,100566.56
2023-05-11T01:09:32.713Z,100568.56
2023-05-11T01:12:05.323Z,100567.81
2023-05-11T01:14:42.300Z,100566.84
2023-05-11T01:17:22.438Z,100577.25
2023-05-11T01:19:56.768Z,100576.50
2023-05-11T01:22:54.285Z,100580.06
2023-05-11T01:25:29.890Z,100585.38
2023-05-11T01:28:21.415Z,100583.75
2023-05-11T01:31:10.716Z,100575.94
2023-05-11T01:33:48.049Z,100578.94
2023-05-11T01:36:16.867Z,100576.47
2023-05-11T01:38:47.584Z,100582.75
2023-05-11T01:41:17.646Z,100583.66
2023-05-11T01:43:53.439Z,100574.06
2023-05-11T01:46:23.323Z,100589.63
2023-05-11T01:48:52.527Z,100585.09
2023-05-11T01:51:19.902Z,100592.03
2023-05-11T01:53:47.927Z,100592.19
2023-05-11T01:56:15.226Z,100584.28
2023-05-11T01:58:43.627Z,100588.63
2023-05-11T02:01:11.823Z,100585.22
2023-05-11T02:03:41.646Z,100590.56
2023-05-11T02:06:11.389Z,100585.69
2023-05-11T02:08:39.701Z,100578.88
2023-05-11T02:11:07.494Z,100583.13
2023-05-11T02:13:37.560Z,100576.91
2023-05-11T02:16:06.683Z,100581.34
2023-05-11T02:18:34.488Z,100571.13
2023-05-11T02:21:02.904Z,100571.97
2023-05-11T02:23:32.882Z,100578.28
2023-05-11T02:25:59.837Z,100578.31
2023-05-11T02:28:26.336Z,100583.47
2023-05-11T02:30:59.575Z,100586.00
2023-05-11T02:33:31.571Z,100576.25
2023-05-11T02:35:59.482Z,100573.38
2023-05-11T02:38:33.514Z,100574.16
2023-05-11T02:41:07.120Z,100567.94
2023-05-11T02:43:36.881Z,100573.19
2023-05-11T02:46:06.933Z,100567.16
2023-05-11T02:48:39.983Z,100564.56
2023-05-11T02:51:08.395Z,100559.59
2023-05-11T02:53:37.929Z,100562.34
2023-05-11T02:56:05.345Z,100559.84
2023-05-11T02:58:32.389Z,100557.31
2023-05-11T03:01:00.148Z,100557.13
2023-05-11T03:03:27.582Z,100559.63
2023-05-11T03:05:54.052Z,100562.22
2023-05-11T03:08:20.519Z,100566.50
2023-05-11T03:10:47.107Z,100564.69
2023-05-11T03:13:14.089Z,100561.16
2023-05-11T03:15:41.431Z,100569.03
2023-05-11T03:18:09.070Z,100564.69
2023-05-11T03:20:40.246Z,100566.44
2023-05-11T03:23:07.598Z,100577.81
2023-05-11T03:25:34.644Z,100580.44
2023-05-11T03:28:02.525Z,100576.97
2023-05-11T03:30:29.672Z,100574.22
2023-05-11T03:32:56.365Z,100575.88
2023-05-11T03:35:27.261Z,100575.84
2023-05-11T03:37:56.437Z,100578.44
2023-05-11T03:40:24.396Z,100567.09
2023-05-11T03:42:55.481Z,100566.19
2023-05-11T03:45:23.348Z,100566.25
2023-05-11T03:47:52.223Z,100567.09
2023-05-11T03:50:21.169Z,100564.41
2023-05-11T03:52:49.134Z,100561.78
2023-05-11T03:55:16.189Z,100566.19
2023-05-11T03:57:43.254Z,100562.69
2023-05-11T04:00:11.223Z,100570.56
2023-05-11T04:02:37.886Z,100565.31
2023-05-11T04:05:11.716Z,100573.09
2023-05-11T04:07:39.478Z,100571.38
2023-05-11T04:10:07.344Z,100569.72
2023-05-11T04:12:33.865Z,100574.28
2023-05-11T04:15:00.419Z,100569.19
2023-05-11T04:17:26.949Z,100569.19
2023-05-11T04:19:53.397Z,100570.91
2023-05-11T04:22:19.867Z,100568.38
2023-05-11T04:24:46.289Z,100573.53
2023-05-11T04:27:12.676Z,100575.19
2023-05-11T04:29:39.147Z,100569.06
2023-05-11T04:32:05.836Z,100587.41
2023-05-11T04:34:32.234Z,100580.44
2023-05-11T04:36:59.034Z,100584.78
2023-05-11T04:39:26.198Z,100584.69
2023-05-11T04:41:52.627Z,100581.34
2023-05-11T04:44:19.036Z,100585.69
2023-05-11T04:46:45.487Z,100583.06
2023-05-11T04:49:11.943Z,100589.22
2023-05-11T04:51:39.283Z,100580.50
2023-05-11T04:54:05.809Z,100594.41
2023-05-11T04:56:32.263Z,100590.94
2023-05-11T04:58:58.666Z,100597.91
2023-05-11T05:01:25.138Z,100595.22
2023-05-11T05:03:51.801Z,100601.44
2023-05-11T05:06:18.287Z,100597.81
2023-05-11T05:08:44.717Z,100602.09
2023-05-11T05:11:11.272Z,100603.06
2023-05-11T05:13:37.825Z,100598.63
2023-05-11T05:16:04.472Z,100611.69
2023-05-11T05:18:30.902Z,100611.59
2023-05-11T05:20:57.397Z,100609.69
2023-05-11T05:23:23.853Z,100609.69
2023-05-11T05:25:50.385Z,100612.22
2023-05-11T05:28:18.078Z,100617.38
2023-05-11T05:30:44.615Z,100617.56
2023-05-11T05:33:11.098Z,100626.28
2023-05-11T05:35:37.579Z,100628.03
2023-05-11T05:38:04.088Z,100632.44
2023-05-11T05:40:30.728Z,100629.84
2023-05-11T05:42:57.154Z,100635.88
2023-05-11T05:45:23.750Z,100635.88
2023-05-11T05:47:51.739Z,100634.06
2023-05-11T05:50:18.476Z,100639.41
2023-05-11T05:52:45.036Z,100641.03
2023-05-11T05:55:11.490Z,100633.84
2023-05-11T05:57:37.895Z,100633.78
2023-05-11T06:00:04.798Z,100639.09
2023-05-11T06:02:31.264Z,100640.75
2023-05-11T06:04:58.444Z,100646.88
2023-05-11T06:07:25.080Z,100646.84
2023-05-11T06:09:51.494Z,100648.69
2023-05-11T06:12:17.916Z,100653.88
2023-05-11T06:14:44.331Z,100646.72
2023-05-11T06:17:10.885Z,100645.81
2023-05-11T06:19:38.551Z,100652.91
2023-05-11T06:22:06.718Z,100646.75
2023-05-11T06:24:33.653Z,100651.25
2023-05-11T06:27:00.559Z,100647.72
2023-05-11T06:29:27.071Z,100658.88
2023-05-11T06:31:54.399Z,100651.09
2023-05-11T06:34:21.810Z,100648.47
2023-05-11T06:36:48.763Z,100642.19
2023-05-11T06:39:15.243Z,100648.94
2023-05-11T06:41:41.734Z,100652.22
2023-05-11T06:44:08.498Z,100656.47
2023-05-11T06:46:35.028Z,100646.16
2023-05-11T06:49:01.896Z,100653.97
2023-05-11T06:51:28.304Z,100651.31
2023-05-11T06:53:54.726Z,100654.56
2023-05-11T06:56:21.838Z,100654.28
2023-05-11T06:58:48.393Z,100658.50
2023-05-11T07:01:14.912Z,100657.66
2023-05-11T07:03:41.489Z,100661.22
2023-05-11T07:06:08.189Z,100655.91
2023-05-11T07:08:34.719Z,100662.78
2023-05-11T07:11:01.444Z,100665.38
2023-05-11T07:13:27.905Z,100662.44
2023-05-11T07:15:57.238Z,100658.84
2023-05-11T07:18:24.211Z,100656.00
2023-05-11T07:20:50.760Z,100659.28
2023-05-11T07:23:17.267Z,100661.88
2023-05-11T07:25:43.770Z,100664.63
2023-05-11T07:28:10.283Z,100664.66
2023-05-11T07:30:36.787Z,100668.28
2023-05-11T07:33:03.993Z,100674.56
2023-05-11T07:35:30.856Z,100665.66
2023-05-11T07:37:57.411Z,100671.13
2023-05-11T07:40:23.934Z,100682.41
2023-05-11T07:42:50.403Z,100677.03
2023-05-11T07:45:16.878Z,100674.41
2023-05-11T07:47:43.413Z,100680.34
2023-05-11T07:50:10.097Z,100684.13
2023-05-11T07:52:36.647Z,100677.09
2023-05-11T07:55:03.202Z,100681.31
2023-05-11T07:57:29.625Z,100683.03
2023-05-11T07:59:56.205Z,100679.44
2023-05-11T08:02:22.963Z,100671.78
2023-05-11T08:04:49.540Z,100682.41
2023-05-11T08:07:16.097Z,100680.41
2023-05-11T08:09:42.779Z,100682.22
2023-05-11T08:12:09.854Z,100692.63
2023-05-11T08:14:36.511Z,100685.38
2023-05-11T08:17:05.661Z,100686.91
2023-05-11T08:19:32.121Z,100689.41
2023-05-11T08:22:00.270Z,100684.97
2023-05-11T08:24:27.076Z,100691.44
2023-05-11T08:26:53.973Z,100691.31
2023-05-11T08:29:20.435Z,100701.78
2023-05-11T08:31:46.967Z,100701.91
2023-05-11T08:34:19.290Z,100698.41
2023-05-11T08:36:46.800Z,100694.84
2023-05-11T08:39:13.387Z,100692.84
2023-05-11T08:41:39.973Z,100703.50
2023-05-11T08:44:07.719Z,100703.59
2023-05-11T08:46:36.080Z,100699.81
2023-05-11T08:49:03.071Z,100704.16
2023-05-11T08:51:29.571Z,100704.00
2023-05-11T08:53:57.773Z,100704.00
2023-05-11T08:56:26.595Z,100709.25
2023-05-11T08:58:56.241Z,100710.84
2023-05-11T09:01:23.753Z,100711.03
2023-05-11T09:03:51.516Z,100709.22
2023-05-11T09:06:18.282Z,100710.00
2023-05-11T09:08:45.880Z,100712.50
2023-05-11T09:11:12.850Z,100709.69
2023-05-11T09:13:39.539Z,100707.88
2023-05-11T09:16:13.834Z,100716.44
2023-05-11T09:18:47.749Z,100713.72
2023-05-11T09:21:14.387Z,100704.84
2023-05-11T09:23:41.096Z,100705.66
2023-05-11T09:26:29.621Z,100708.34
2023-05-11T09:29:02.859Z,100709.81
2023-05-11T09:31:43.522Z,100705.03
2023-05-11T09:34:16.270Z,100713.03
2023-05-11T09:36:47.968Z,100710.94
2023-05-11T09:39:15.844Z,100708.06
2023-05-11T09:41:43.247Z,100702.63
2023-05-11T09:44:14.096Z,100714.75
2023-05-11T09:46:42.975Z,100707.00
2023-05-11T09:49:09.892Z,100712.25
2023-05-11T09:51:40.332Z,100709.34
2023-05-11T09:54:18.965Z,100706.72
2023-05-11T09:56:46.407Z,100709.03
2023-05-11T09:59:18.113Z,100703.44
2023-05-11T10:01:44.743Z,100708.63
2023-05-11T10:04:22.891Z,100700.91
2023-05-11T10:06:55.108Z,100702.31
2023-05-11T10:09:25.744Z,100708.84
2023-05-11T10:11:55.154Z,100700.28
2023-05-11T10:14:22.474Z,100718.00
2023-05-11T10:16:49.188Z,100714.63
2023-05-11T10:19:16.522Z,100719.91
2023-05-11T10:21:44.007Z,100707.53
2023-05-11T10:24:11.263Z,100708.50
2023-05-11T10:26:38.553Z,100705.88
2023-05-11T10:29:05.327Z,100703.31
2023-05-11T10:31:32.948Z,100697.22
2023-05-11T10:34:01.216Z,100702.50
2023-05-11T10:36:28.213Z,100701.41
2023-05-11T10:38:54.619Z,100699.50
2023-05-11T10:41:44.941Z,100704.53
2023-05-11T10:44:28.469Z,100700.88
2023-05-11T10:47:29.083Z,100695.38
2023-05-11T10:50:16.305Z,100695.97
2023-05-11T10:53:02.614Z,100702.63
2023-05-11T10:55:38.067Z,100695.25
2023-05-11T10:58:10.409Z,100702.16
2023-05-11T11:00:52.122Z,100705.56
2023-05-11T11:03:18.745Z,100692.91
2023-05-11T11:05:46.319Z,100696.47
2023-05-11T11:08:12.913Z,100695.47
2023-05-11T11:10:46.864Z,100698.06
2023-05-11T11:13:14.769Z,100689.13
2023-05-11T11:15:56.642Z,100692.22
2023-05-11T11:18:30.819Z,100693.94
2023-05-11T11:20:58.432Z,100688.06
2023-05-11T11:23:40.487Z,100694.53
2023-05-11T11:26:18.758Z,100689.44
2023-05-11T11:28:54.303Z,100689.50
2023-05-11T11:31:28.068Z,100687.22
2023-05-11T11:33:58.869Z,100685.56
2023-05-11T11:36:58.438Z,100682.88
2023-05-11T11:39:50.280Z,100688.31
2023-05-11T11:42:34.510Z,100683.16
2023-05-11T11:45:27.973Z,100690.38
2023-05-11T11:48:13.259Z,100688.66
2023-05-11T11:50:45.743Z,100686.03
2023-05-11T11:53:33.295Z,100686.53
2023-05-11T11:56:00.132Z,100682.97
2023-05-11T11:58:41.865Z,100690.78
2023-05-11T12:01:10.126Z,100680.97
2023-05-11T12:03:37.281Z,100675.53
2023-05-11T12:06:06.370Z,100672.59
2023-05-11T12:08:32.874Z,100678.38
2023-05-11T12:11:01.377Z,100678.66
2023-05-11T12:13:28.718Z,100683.50
2023-05-11T12:16:15.079Z,100682.00
2023-05-11T12:19:02.389Z,100674.06
2023-05-11T12:21:33.797Z,100680.38
2023-05-11T12:24:02.107Z,100681.56
2023-05-11T12:26:30.408Z,100667.72
2023-05-11T12:29:12.657Z,100678.44
2023-05-11T12:31:44.655Z,100669.72
2023-05-11T12:34:16.130Z,100666.84
2023-05-11T12:36:43.892Z,100666.25
2023-05-11T12:39:20.822Z,100662.13
2023-05-11T12:41:49.078Z,100662.97
2023-05-11T12:44:19.287Z,100659.38
2023-05-11T12:46:47.252Z,100665.44
2023-05-11T12:49:24.887Z,100653.97
2023-05-11T12:52:02.328Z,100657.59
2023-05-11T12:54:29.974Z,100661.09
2023-05-11T12:56:56.473Z,100654.09
2023-05-11T12:59:40.135Z,100649.34
2023-05-11T13:02:11.319Z,100651.94
2023-05-11T13:04:39.706Z,100646.50
2023-05-11T13:07:06.570Z,100647.91
2023-05-11T13:09:33.533Z,100642.66
2023-05-11T13:12:19.001Z,100638.41
2023-05-11T13:14:49.573Z,100639.56
2023-05-11T13:17:39.064Z,100637.59
2023-05-11T13:20:27.280Z,100638.50
2023-05-11T13:23:04.409Z,100645.44
2023-05-11T13:25:31.798Z,100640.63
2023-05-11T13:27:58.243Z,100639.91
2023-05-11T13:30:24.718Z,100638.69
2023-05-11T13:32:51.249Z,100633.41
2023-05-11T13:35:17.976Z,100630.91
2023-05-11T13:37:46.080Z,100638.69
2023-05-11T13:40:13.054Z,100632.56
2023-05-11T13:42:41.602Z,100632.84
2023-05-11T13:45:08.552Z,100633.97
2023-05-11T13:47:35.900Z,100620.94
2023-05-11T13:50:02.699Z,100617.72
2023-05-11T13:52:29.283Z,100618.59
2023-05-11T13:54:56.812Z,100619.38
2023-05-11T13:57:23.447Z,100625.66
2023-05-11T13:59:50.565Z,100625.19
2023-05-11T14:02:17.055Z,100621.63
2023-05-11T14:04:43.767Z,100618.53
2023-05-11T14:07:10.342Z,100621.53
2023-05-11T14:09:37.169Z,100626.22
2023-05-11T14:12:04.036Z,100630.50
2023-05-11T14:14:30.577Z,100616.31
2023-05-11T14:16:57.125Z,100623.38
2023-05-11T14:19:23.759Z,100623.31
2023-05-11T14:21:50.529Z,100625.09
2023-05-11T14:24:16.937Z,100627.00
2023-05-11T14:26:43.513Z,100630.97
2023-05-11T14:29:10.190Z,100624.00
2023-05-11T14:31:37.356Z,100620.84
2023-05-11T14:34:04.642Z,100624.56
2023-05-11T14:36:31.923Z,100626.66
2023-05-11T14:38:58.446Z,100619.81
2023-05-11T14:41:25.590Z,100620.03
2023-05-11T14:43:52.256Z,100624.06
2023-05-11T14:46:18.723Z,100626.13
2023-05-11T14:48:45.320Z,100621.13
2023-05-11T14:51:11.841Z,100619.50
2023-05-11T14:53:38.333Z,100616.31
2023-05-11T14:56:05.173Z,100616.44
2023-05-11T14:58:32.047Z,100613.56
2023-05-11T15:00:58.548Z,100609.19
2023-05-11T15:03:25.181Z,100610.09
2023-05-11T15:05:51.812Z,100610.69
2023-05-11T15:08:29.109Z,100608.03
2023-05-11T15:10:56.982Z,100609.81
2023-05-11T15:13:24.012Z,100610.63
2023-05-11T15:15:51.580Z,100608.09
2023-05-11T15:18:18.747Z,100610.81
2023-05-11T15:20:46.242Z,100613.31
2023-05-11T15:23:16.594Z,100609.81
2023-05-11T15:25:44.450Z,100618.72
2023-05-11T15:28:13.841Z,100618.84
2023-05-11T15:30:41.555Z,100614.66
2023-05-11T15:33:10.070Z,100618.84
2023-05-11T15:35:37.555Z,100628.13
2023-05-11T15:38:04.293Z,100630.78
2023-05-11T15:40:30.833Z,100628.25
2023-05-11T15:42:58.940Z,100636.16
2023-05-11T15:45:26.066Z,100642.38
2023-05-11T15:47:52.741Z,100637.13
2023-05-11T15:50:19.436Z,100634.69
2023-05-11T15:52:46.097Z,100632.03
2023-05-11T15:55:12.586Z,100630.13
2023-05-11T15:57:39.010Z,100628.34
2023-05-11T16:00:06.178Z,100637.44
2023-05-11T16:02:32.753Z,100631.47
2023-05-11T16:04:59.320Z,100628.75
2023-05-11T16:07:27.117Z,100635.19
2023-05-11T16:09:53.758Z,100640.22
2023-05-11T16:12:20.272Z,100640.94
2023-05-11T16:14:46.734Z,100645.22
2023-05-11T16:17:13.384Z,100642.81
2023-05-11T16:19:40.306Z,100641.28
2023-05-11T16:22:07.459Z,100646.47
2023-05-11T16:24:34.635Z,100634.97
2023-05-11T16:27:01.363Z,100640.97
2023-05-11T16:29:27.892Z,100646.16
2023-05-11T16:31:54.468Z,100644.66
2023-05-11T16:34:21.079Z,100644.97
2023-05-11T16:36:47.592Z,100651.25
2023-05-11T16:39:14.051Z,100646.91
2023-05-11T16:41:40.621Z,100638.94
2023-05-11T16:44:07.135Z,100637.06
2023-05-11T16:46:33.684Z,100637.00
2023-05-11T16:49:00.264Z,100644.00
2023-05-11T16:51:26.832Z,100635.31
2023-05-11T16:53:53.294Z,100646.38
2023-05-11T16:56:19.796Z,100637.72
2023-05-11T16:58:46.359Z,100646.63
2023-05-11T17:01:12.819Z,100638.84
2023-05-11T17:03:39.402Z,100638.84
2023-05-11T17:06:06.227Z,100638.00
2023-05-11T17:08:34.189Z,100644.22
2023-05-11T17:11:00.647Z,100644.31
2023-05-11T17:13:27.208Z,100641.16
2023-05-11T17:15:56.140Z,100640.19
2023-05-11T17:18:23.744Z,100641.00
2023-05-11T17:20:54.499Z,100639.28
2023-05-11T17:23:21.216Z,100642.81
2023-05-11T17:25:48.130Z,100649.09
2023-05-11T17:28:15.192Z,100642.28
2023-05-11T17:33:13.777Z,100644.97
2023-05-11T17:35:40.467Z,100644.03
2023-05-11T17:38:07.566Z,100652.25
2023-05-11T17:40:34.300Z,100656.72
2023-05-11T17:43:01.555Z,100646.13
2023-05-11T17:45:28.107Z,100635.41
2023-05-11T17:47:54.895Z,100641.34
2023-05-11T17:50:23.374Z,100639.63
2023-05-11T17:52:51.203Z,100641.66
2023-05-11T17:55:18.559Z,100632.84
2023-05-11T17:57:45.307Z,100636.25
2023-05-11T18:00:12.548Z,100637.97
2023-05-11T18:02:39.524Z,100631.13
2023-05-11T18:05:07.060Z,100638.16
2023-05-11T18:07:33.688Z,100643.38
2023-05-11T18:10:00.328Z,100625.84
2023-05-11T18:12:27.013Z,100628.56
2023-05-11T18:14:53.491Z,100630.34
2023-05-11T18:17:19.974Z,100629.47
2023-05-11T18:19:46.384Z,100628.47
2023-05-11T18:22:13.050Z,100624.09
2023-05-11T18:24:39.498Z,100628.50
2023-05-11T18:27:06.027Z,100628.50
2023-05-11T18:29:32.475Z,100629.47
2023-05-11T18:31:59.005Z,100632.22
2023-05-11T18:34:25.541Z,100637.44
2023-05-11T18:36:52.015Z,100640.13
2023-05-11T18:39:19.295Z,100636.59
2023-05-11T18:41:45.962Z,100641.84
2023-05-11T18:44:14.037Z,100648.13
2023-05-11T18:46:41.067Z,100643.69
2023-05-11T18:49:07.688Z,100650.66
2023-05-11T18:51:34.135Z,100650.72
2023-05-11T18:54:01.183Z,100649.69
2023-05-11T18:56:27.663Z,100647.84
2023-05-11T18:58:54.250Z,100658.38
2023-05-11T19:01:24.099Z,100653.97
2023-05-11T19:03:52.389Z,100661.03
2023-05-11T19:06:18.829Z,100656.72
2023-05-11T19:08:45.250Z,100656.78
2023-05-11T19:11:13.898Z,100670.81
2023-05-11T19:13:40.591Z,100664.63
2023-05-11T19:16:07.158Z,100667.38
2023-05-11T19:18:35.632Z,100670.00
2023-05-11T19:21:03.126Z,100667.31
2023-05-11T19:23:29.620Z,100670.81
2023-05-11T19:25:56.076Z,100662.25
2023-05-11T19:28:22.624Z,100666.66
2023-05-11T19:30:49.219Z,100672.72
2023-05-11T19:33:16.046Z,100671.19
2023-05-11T19:35:42.557Z,100680.22
2023-05-11T19:38:09.048Z,100678.34
2023-05-11T19:40:45.832Z,100677.38
2023-05-11T19:43:13.040Z,100676.56
2023-05-11T19:45:42.250Z,100681.16
2023-05-11T19:48:09.115Z,100675.06
2023-05-11T19:50:35.590Z,100677.59
2023-05-11T19:53:02.100Z,100674.13
2023-05-11T19:55:28.618Z,100680.19
2023-05-11T19:57:55.064Z,100682.88
2023-05-11T20:00:25.016Z,100687.34
2023-05-11T20:02:55.149Z,100692.56
2023-05-11T20:05:21.748Z,100680.31
2023-05-11T20:07:48.308Z,100678.53
2023-05-11T20:10:14.779Z,100683.91
2023-05-11T20:12:41.448Z,100686.69
2023-05-11T20:15:08.526Z,100684.03
2023-05-11T20:17:35.942Z,100686.50
2023-05-11T20:20:02.916Z,100687.34
2023-05-11T20:22:29.668Z,100681.34
2023-05-11T20:24:56.403Z,100683.06
2023-05-11T20:27:23.124Z,100686.59
2023-05-11T20:29:49.605Z,100677.78
2023-05-11T20:32:16.092Z,100676.16
2023-05-11T20:34:42.543Z,100680.63
2023-05-11T20:37:09.398Z,100673.69
2023-05-11T20:39:36.316Z,100674.53
2023-05-11T20:42:04.786Z,100671.09
2023-05-11T20:44:31.353Z,100671.00
2023-05-11T20:46:57.870Z,100678.16
2023-05-11T20:49:35.105Z,100668.53
2023-05-11T20:52:05.908Z,100664.22
2023-05-11T20:54:34.751Z,100665.94
2023-05-11T20:57:02.023Z,100665.00
2023-05-11T21:01:59.997Z,100665.94
2023-05-11T21:04:26.514Z,100667.75
2023-05-11T21:06:56.433Z,100662.50
2023-05-11T21:09:22.909Z,100659.84
2023-05-11T21:11:49.371Z,100658.94
2023-05-11T21:14:15.859Z,100651.88
2023-05-11T21:16:42.718Z,100652.69
2023-05-11T21:19:09.340Z,100658.09
2023-05-11T21:21:35.871Z,100660.81
2023-05-11T21:24:02.432Z,100656.56
2023-05-11T21:26:28.987Z,100658.38
2023-05-11T21:28:56.987Z,100653.06
2023-05-11T21:31:23.553Z,100656.41
2023-05-11T21:33:50.097Z,100651.97
2023-05-11T21:36:16.586Z,100659.16
2023-05-11T21:38:43.051Z,100656.72
2023-05-11T21:41:09.682Z,100661.00
2023-05-11T21:43:36.154Z,100655.75
2023-05-11T21:46:03.061Z,100653.28
2023-05-11T21:48:29.921Z,100658.53
2023-05-11T21:50:56.337Z,100645.41
2023-05-11T21:53:23.784Z,100648.81
2023-05-11T21:55:50.391Z,100643.63
2023-05-11T21:58:17.226Z,100638.41
2023-05-11T22:00:44.175Z,100641.13
2023-05-11T22:03:10.750Z,100642.09
2023-05-11T22:05:37.237Z,100639.56
2023-05-11T22:08:13.980Z,100637.69
2023-05-11T22:10:43.034Z,100639.50
2023-05-11T22:13:09.747Z,100637.06
2023-05-11T22:15:36.286Z,100640.72
2023-05-11T22:18:03.591Z,100635.28
2023-05-11T22:20:31.612Z,100636.97
2023-05-11T22:22:58.211Z,100631.81
2023-05-11T22:25:24.748Z,100626.66
2023-05-11T22:27:51.265Z,100633.72
2023-05-11T22:30:18.256Z,100636.34
2023-05-11T22:32:45.006Z,100632.00
2023-05-11T22:35:11.742Z,100631.13
2023-05-11T22:37:38.161Z,100625.00
2023-05-11T22:40:05.352Z,100624.97
2023-05-11T22:42:32.773Z,100629.22
2023-05-11T22:44:59.343Z,100622.19
2023-05-11T22:47:26.130Z,100620.59
2023-05-11T22:49:52.639Z,100630.38
2023-05-11T22:52:19.092Z,100625.00
2023-05-11T22:54:45.566Z,100616.25
2023-05-11T22:57:14.683Z,100620.59
2023-05-11T22:59:41.168Z,100618.91
2023-05-11T23:02:07.700Z,100613.69
2023-05-11T23:04:34.187Z,100619.84
2023-05-11T23:07:00.630Z,100620.72
2023-05-11T23:09:27.689Z,100615.41
2023-05-11T23:11:54.306Z,100616.38
2023-05-11T23:14:21.005Z,100610.19
2023-05-11T23:16:49.645Z,100609.28
2023-05-11T23:19:16.217Z,100601.41
2023-05-11T23:21:42.756Z,100600.66
2023-05-11T23:24:09.208Z,100596.28
2023-05-11T23:26:36.004Z,100597.09
2023-05-11T23:29:03.493Z,100589.22
2023-05-11T23:31:32.102Z,100590.03
2023-05-11T23:33:59.131Z,100590.88
2023-05-11T23:36:25.629Z,100591.84
2023-05-11T23:38:53.281Z,100581.22
2023-05-11T23:41:19.818Z,100584.75
2023-05-11T23:43:46.222Z,100583.84
2023-05-11T23:46:12.903Z,100577.78
2023-05-11T23:48:40.143Z,100580.47
2023-05-11T23:51:06.621Z,100573.53
2023-05-11T23:53:33.068Z,100571.81
2023-05-11T23:55:59.476Z,100572.63
2023-05-11T23:58:25.957Z,100569.13
